createdAt,value
2022-09-11T00:04:36.279Z,100399.47
2022-09-11T00:09:39.228Z,100407.69
2022-09-11T00:14:42.216Z,100400.84
2022-09-11T00:19:46.432Z,100409.97
2022-09-11T00:24:50.087Z,100408.56
2022-09-11T00:29:54.288Z,100412.88
2022-09-11T00:34:58.372Z,100425.94
2022-09-11T00:40:01.265Z,100425.41
2022-09-11T00:45:07.397Z,100426.53
2022-09-11T00:50:14.988Z,100433.81
2022-09-11T00:55:23.069Z,100436.22
2022-09-11T01:00:25.920Z,100428.97
2022-09-11T01:05:34.530Z,100428.00
2022-09-11T01:10:46.389Z,100432.56
2022-09-11T01:16:04.151Z,100432.69
2022-09-11T01:21:32.540Z,100434.72
2022-09-11T01:26:48.779Z,100441.44
2022-09-11T01:32:00.436Z,100441.56
2022-09-11T01:37:08.801Z,100447.84
2022-09-11T01:42:16.844Z,100454.09
2022-09-11T01:47:22.183Z,100464.41
2022-09-11T01:52:40.985Z,100467.31
2022-09-11T01:57:48.816Z,100470.28
2022-09-11T02:03:00.579Z,100474.47
2022-09-11T02:08:09.529Z,100481.06
2022-09-11T02:13:16.954Z,100482.06
2022-09-11T02:18:26.929Z,100479.34
2022-09-11T02:23:29.748Z,100492.16
2022-09-11T02:28:32.729Z,100497.38
2022-09-11T02:33:38.647Z,100500.34
2022-09-11T02:38:52.638Z,100503.16
2022-09-11T02:44:05.218Z,100512.69
2022-09-11T02:49:20.645Z,100508.97
2022-09-11T02:54:30.289Z,100516.59
2022-09-11T02:59:38.152Z,100521.16
2022-09-11T03:04:43.330Z,100523.09
2022-09-11T03:09:46.965Z,100517.25
2022-09-11T03:14:57.025Z,100522.69
2022-09-11T03:20:01.343Z,100513.31
2022-09-11T03:25:06.610Z,100519.50
2022-09-11T03:30:10.532Z,100520.09
2022-09-11T03:35:16.377Z,100531.19
2022-09-11T03:40:20.210Z,100519.66
2022-09-11T03:45:23.219Z,100525.78
2022-09-11T03:50:27.771Z,100535.69
2022-09-11T03:55:31.670Z,100534.97
2022-09-11T04:00:37.153Z,100539.66
2022-09-11T04:05:42.060Z,100536.84
2022-09-11T04:10:44.948Z,100538.28
2022-09-11T04:15:48.052Z,100539.13
2022-09-11T04:20:52.396Z,100552.34
2022-09-11T04:25:56.324Z,100551.66
2022-09-11T04:31:05.090Z,100555.13
2022-09-11T04:36:14.213Z,100549.69
2022-09-11T04:41:17.815Z,100547.53
2022-09-11T04:46:20.739Z,100543.88
2022-09-11T04:51:29.123Z,100546.28
2022-09-11T04:56:37.797Z,100567.91
2022-09-11T05:01:41.092Z,100564.91
2022-09-11T05:06:48.214Z,100573.16
2022-09-11T05:11:52.553Z,100575.28
2022-09-11T05:16:57.399Z,100573.44
2022-09-11T05:22:04.379Z,100581.84
2022-09-11T05:27:09.803Z,100584.09
2022-09-11T05:32:14.750Z,100601.88
2022-09-11T05:37:19.851Z,100616.69
2022-09-11T05:42:24.742Z,100615.69
2022-09-11T05:47:30.511Z,100625.75
2022-09-11T05:52:35.195Z,100624.91
2022-09-11T05:57:39.087Z,100632.44
2022-09-11T06:02:42.517Z,100645.41
2022-09-11T06:07:46.784Z,100650.00
2022-09-11T06:12:49.848Z,100661.47
2022-09-11T06:17:52.850Z,100667.88
2022-09-11T06:22:57.214Z,100666.41
2022-09-11T06:28:02.622Z,100668.03
2022-09-11T06:33:06.376Z,100681.53
2022-09-11T06:38:11.923Z,100677.72
2022-09-11T06:43:15.548Z,100688.22
2022-09-11T06:48:20.148Z,100699.59
2022-09-11T06:53:24.822Z,100692.91
2022-09-11T06:58:31.007Z,100692.75
2022-09-11T07:03:34.455Z,100687.63
2022-09-11T07:08:42.756Z,100689.97
2022-09-11T07:13:45.818Z,100692.38
2022-09-11T07:18:49.994Z,100703.03
2022-09-11T07:24:00.501Z,100704.84
2022-09-11T07:29:09.608Z,100708.41
2022-09-11T07:34:12.803Z,100705.84
2022-09-11T07:39:17.003Z,100713.78
2022-09-11T07:44:26.681Z,100721.47
2022-09-11T07:49:29.734Z,100726.41
2022-09-11T07:54:34.914Z,100720.22
2022-09-11T07:59:39.410Z,100728.13
2022-09-11T08:04:43.502Z,100735.94
2022-09-11T08:09:56.076Z,100731.53
2022-09-11T08:15:11.322Z,100734.50
2022-09-11T08:20:14.681Z,100741.50
2022-09-11T08:25:19.208Z,100755.47
2022-09-11T08:30:22.949Z,100756.22
2022-09-11T08:35:26.178Z,100761.41
2022-09-11T08:40:31.835Z,100768.47
2022-09-11T08:45:37.431Z,100763.66
2022-09-11T08:50:44.400Z,100765.38
2022-09-11T08:56:00.483Z,100760.59
2022-09-11T09:01:12.309Z,100766.31
2022-09-11T09:06:34.341Z,100769.34
2022-09-11T09:11:49.006Z,100784.34
2022-09-11T09:17:00.465Z,100782.59
2022-09-11T09:22:13.385Z,100775.88
2022-09-11T09:27:28.271Z,100780.28
2022-09-11T09:32:38.491Z,100791.81
2022-09-11T09:37:41.875Z,100781.69
2022-09-11T09:43:13.076Z,100795.22
2022-09-11T09:48:16.333Z,100793.22
2022-09-11T09:53:29.498Z,100803.44
2022-09-11T09:58:38.100Z,100807.81
2022-09-11T10:03:40.944Z,100809.75
2022-09-11T10:08:44.507Z,100807.22
2022-09-11T10:13:57.227Z,100815.22
2022-09-11T10:19:00.432Z,100811.19
2022-09-11T10:24:20.567Z,100815.16
2022-09-11T10:29:30.051Z,100821.66
2022-09-11T10:34:37.944Z,100818.19
2022-09-11T10:39:42.192Z,100820.06
2022-09-11T10:44:48.446Z,100816.13
2022-09-11T10:49:51.695Z,100816.09
2022-09-11T10:55:03.001Z,100810.94
2022-09-11T11:00:17.200Z,100818.50
2022-09-11T11:05:27.150Z,100823.03
2022-09-11T11:10:42.592Z,100814.09
2022-09-11T11:15:58.294Z,100819.22
2022-09-11T11:21:15.112Z,100817.34
2022-09-11T11:26:32.377Z,100826.69
2022-09-11T11:31:59.440Z,100823.63
2022-09-11T11:37:07.229Z,100830.56
2022-09-11T11:42:14.353Z,100828.06
2022-09-11T11:47:25.348Z,100831.94
2022-09-11T11:52:40.028Z,100834.16
2022-09-11T11:57:48.209Z,100834.41
2022-09-11T12:02:59.138Z,100819.41
2022-09-11T12:08:02.529Z,100818.28
2022-09-11T12:13:12.400Z,100818.78
2022-09-11T12:18:25.277Z,100814.41
2022-09-11T12:23:35.485Z,100805.09
2022-09-11T12:28:38.792Z,100804.16
2022-09-11T12:33:56.637Z,100804.50
2022-09-11T12:39:04.402Z,100794.16
2022-09-11T12:44:30.952Z,100803.00
2022-09-11T12:49:37.688Z,100795.25
2022-09-11T12:54:44.463Z,100797.25
2022-09-11T12:59:54.321Z,100797.88
2022-09-11T13:04:59.068Z,100789.03
2022-09-11T13:10:08.051Z,100783.38
2022-09-11T13:15:52.417Z,100789.91
2022-09-11T13:21:02.122Z,100777.88
2022-09-11T13:26:07.854Z,100775.38
2022-09-11T13:31:19.388Z,100768.13
2022-09-11T13:36:26.132Z,100757.97
2022-09-11T13:41:31.737Z,100760.47
2022-09-11T13:46:35.266Z,100755.97
2022-09-11T13:51:42.123Z,100765.09
2022-09-11T13:56:48.202Z,100771.88
2022-09-11T14:01:56.642Z,100758.19
2022-09-11T14:07:01.179Z,100738.84
2022-09-11T14:12:04.681Z,100733.75
2022-09-11T14:17:13.866Z,100725.13
2022-09-11T14:22:25.494Z,100720.72
2022-09-11T14:27:37.767Z,100716.00
2022-09-11T14:32:40.864Z,100724.81
2022-09-11T14:37:47.051Z,100720.47
2022-09-11T14:42:50.240Z,100716.38
2022-09-11T14:47:53.816Z,100713.31
2022-09-11T14:52:58.172Z,100705.63
2022-09-11T14:58:01.900Z,100692.72
2022-09-11T15:03:04.835Z,100701.88
2022-09-11T15:08:10.356Z,100703.78
2022-09-11T15:13:13.324Z,100698.63
2022-09-11T15:18:18.589Z,100708.13
2022-09-11T15:23:23.692Z,100698.44
2022-09-11T15:28:29.124Z,100691.78
2022-09-11T15:33:34.018Z,100688.28
2022-09-11T15:38:38.485Z,100680.06
2022-09-11T15:43:41.615Z,100679.84
2022-09-11T15:48:44.652Z,100672.44
2022-09-11T15:53:49.247Z,100675.31
2022-09-11T15:58:52.418Z,100676.09
2022-09-11T16:03:56.654Z,100673.72
2022-09-11T16:09:04.459Z,100672.00
2022-09-11T16:14:07.883Z,100671.06
2022-09-11T16:19:11.046Z,100667.41
2022-09-11T16:24:15.907Z,100674.72
2022-09-11T16:29:20.372Z,100671.84
2022-09-11T16:34:24.842Z,100671.66
2022-09-11T16:39:29.307Z,100659.09
2022-09-11T16:44:33.667Z,100664.44
2022-09-11T16:49:50.434Z,100667.28
2022-09-11T16:55:01.272Z,100663.13
2022-09-11T17:00:06.117Z,100648.38
2022-09-11T17:05:10.275Z,100653.97
2022-09-11T17:10:14.537Z,100648.38
2022-09-11T17:15:19.387Z,100650.25
2022-09-11T17:20:22.250Z,100655.41
2022-09-11T17:25:26.775Z,100655.38
2022-09-11T17:30:29.719Z,100654.34
2022-09-11T17:35:32.743Z,100659.63
2022-09-11T17:40:39.080Z,100663.16
2022-09-11T17:45:42.264Z,100655.34
2022-09-11T17:50:45.227Z,100653.22
2022-09-11T17:55:49.376Z,100662.53
2022-09-11T18:00:52.346Z,100665.38
2022-09-11T18:05:55.305Z,100670.28
2022-09-11T18:11:01.635Z,100671.19
2022-09-11T18:16:07.549Z,100672.31
2022-09-11T18:21:14.476Z,100675.69
2022-09-11T18:26:24.650Z,100679.81
2022-09-11T18:31:30.099Z,100683.19
2022-09-11T18:36:33.692Z,100679.81
2022-09-11T18:41:37.934Z,100690.81
2022-09-11T18:46:41.155Z,100695.41
2022-09-11T18:51:44.138Z,100705.94
2022-09-11T18:56:49.153Z,100696.56
2022-09-11T19:01:52.091Z,100695.66
2022-09-11T19:06:55.063Z,100703.88
2022-09-11T19:12:00.336Z,100712.47
2022-09-11T19:17:04.325Z,100714.06
2022-09-11T19:22:07.221Z,100708.19
2022-09-11T19:27:11.946Z,100710.72
2022-09-11T19:32:15.117Z,100713.28
2022-09-11T19:37:20.045Z,100709.34
2022-09-11T19:42:24.853Z,100719.38
2022-09-11T19:47:28.975Z,100713.69
2022-09-11T19:52:33.196Z,100707.88
2022-09-11T19:57:37.529Z,100710.13
2022-09-11T20:02:40.476Z,100705.91
2022-09-11T20:07:43.684Z,100715.34
2022-09-11T20:12:48.602Z,100720.69
2022-09-11T20:17:51.472Z,100728.91
2022-09-11T20:22:55.577Z,100729.50
2022-09-11T20:28:01.803Z,100718.28
2022-09-11T20:33:04.815Z,100730.66
2022-09-11T20:38:07.661Z,100716.22
2022-09-11T20:43:11.962Z,100724.06
2022-09-11T20:48:14.807Z,100719.00
2022-09-11T20:53:17.773Z,100712.47
2022-09-11T20:58:22.155Z,100707.81
2022-09-11T21:03:25.480Z,100709.41
2022-09-11T21:08:28.269Z,100703.44
2022-09-11T21:13:35.424Z,100704.28
2022-09-11T21:18:39.416Z,100700.16
2022-09-11T21:23:42.576Z,100698.34
2022-09-11T21:28:46.808Z,100687.53
2022-09-11T21:33:49.600Z,100684.88
2022-09-11T21:38:52.647Z,100682.63
2022-09-11T21:43:57.045Z,100692.03
2022-09-11T21:48:59.931Z,100690.16
2022-09-11T21:54:03.047Z,100684.50
2022-09-11T21:59:07.491Z,100684.22
2022-09-11T22:04:10.391Z,100687.66
2022-09-11T22:09:13.243Z,100693.06
2022-09-11T22:14:20.296Z,100692.94
2022-09-11T22:19:23.363Z,100689.09
2022-09-11T22:24:26.257Z,100688.94
2022-09-11T22:29:30.503Z,100689.09
2022-09-11T22:34:34.500Z,100687.94
2022-09-11T22:39:37.465Z,100697.19
2022-09-11T22:44:42.098Z,100691.34
2022-09-11T22:49:44.903Z,100693.91
2022-09-11T22:54:47.865Z,100690.63
2022-09-11T22:59:52.152Z,100690.75
2022-09-11T23:05:08.871Z,100680.66
2022-09-11T23:10:12.227Z,100688.34
2022-09-11T23:15:16.822Z,100684.34
2022-09-11T23:20:19.838Z,100674.22
2022-09-11T23:25:22.691Z,100673.94
2022-09-11T23:30:26.869Z,100679.19
2022-09-11T23:35:29.788Z,100668.38
2022-09-11T23:40:34.016Z,100686.00
2022-09-11T23:45:38.512Z,100678.63
2022-09-11T23:50:41.808Z,100677.91
2022-09-11T23:55:48.005Z,100672.91
